AFL1712 URSS-UBBB
Flight info
| Callsign | AFL1712 |
|---|---|
| Flight time | N/A |
| Altitude | 37000 |
| Route | IRGI1T IRGID A944 RESLO B491 BAPNI A837 MOTEG N23 ERLEV ERLE1H |
| Aircraft | A339/M-VGD/A |
Departure
| Time | 2026-05-06 18:11 |
|---|---|
| Airport | Sochi International Airport (URSS) |
Arrival
| Time | N/A |
|---|---|
| Airport | Heydar Aliyev International Airport (UBBB) |
| Time | Latitude | Longitude | Altitude | Speed | Heading |
|---|---|---|---|---|---|
| 2026-05-06 17:45 | 43.44540 | 39.93780 | 72 ft | 0 kts | 9° |
| 2026-05-06 17:54 | 43.44537 | 39.93779 | 71 ft | 1 kts | 9° |
| 2026-05-06 17:55 | 43.44524 | 39.93776 | 64 ft | 3 kts | 9° |
| 2026-05-06 17:55 | 43.44503 | 39.93771 | 60 ft | 3 kts | 10° |
| 2026-05-06 17:55 | 43.44482 | 39.93766 | 59 ft | 3 kts | 39° |
| 2026-05-06 17:55 | 43.44469 | 39.93747 | 59 ft | 0 kts | 66° |
| 2026-05-06 18:02 | 43.44474 | 39.93762 | 59 ft | 6 kts | 66° |
| 2026-05-06 18:02 | 43.44507 | 39.93862 | 65 ft | 16 kts | 65° |
| 2026-05-06 18:03 | 43.44552 | 39.93992 | 84 ft | 14 kts | 64° |
| 2026-05-06 18:03 | 43.44595 | 39.94113 | 84 ft | 15 kts | 65° |
| 2026-05-06 18:03 | 43.44602 | 39.94134 | 85 ft | 0 kts | 65° |
| 2026-05-06 18:03 | 43.44602 | 39.94135 | 85 ft | 1 kts | 65° |
| 2026-05-06 18:04 | 43.44623 | 39.94196 | 82 ft | 13 kts | 65° |
| 2026-05-06 18:04 | 43.44666 | 39.94325 | 85 ft | 16 kts | 65° |
| 2026-05-06 18:04 | 43.44714 | 39.94467 | 85 ft | 17 kts | 65° |
| 2026-05-06 18:04 | 43.44765 | 39.94617 | 85 ft | 18 kts | 64° |
| 2026-05-06 18:05 | 43.44816 | 39.94766 | 85 ft | 16 kts | 65° |
| 2026-05-06 18:05 | 43.44850 | 39.94867 | 87 ft | 11 kts | 65° |
| 2026-05-06 18:05 | 43.44881 | 39.94958 | 89 ft | 10 kts | 64° |
| 2026-05-06 18:05 | 43.44917 | 39.95060 | 90 ft | 16 kts | 64° |
| 2026-05-06 18:06 | 43.44976 | 39.95222 | 93 ft | 19 kts | 65° |
| 2026-05-06 18:06 | 43.45028 | 39.95376 | 97 ft | 11 kts | 65° |
| 2026-05-06 18:06 | 43.45049 | 39.95436 | 98 ft | 0 kts | 65° |
| 2026-05-06 18:07 | 43.45050 | 39.95439 | 98 ft | 2 kts | 65° |
| 2026-05-06 18:07 | 43.45059 | 39.95499 | 100 ft | 9 kts | 87° |
| 2026-05-06 18:07 | 43.45038 | 39.95519 | 99 ft | 0 kts | 159° |
| 2026-05-06 18:09 | 43.45029 | 39.95525 | 97 ft | 6 kts | 156° |
| 2026-05-06 18:09 | 43.44951 | 39.95517 | 97 ft | 13 kts | 219° |
| 2026-05-06 18:09 | 43.44926 | 39.95450 | 97 ft | 0 kts | 243° |
| 2026-05-06 18:10 | 43.44814 | 39.95127 | 88 ft | 86 kts | 245° |
| 2026-05-06 18:10 | 43.44438 | 39.94007 | 86 ft | 167 kts | 245° |
| 2026-05-06 18:10 | 43.43877 | 39.92348 | 303 ft | 207 kts | 245° |
| 2026-05-06 18:11 | 43.43230 | 39.90432 | 770 ft | 233 kts | 245° |
| 2026-05-06 18:11 | 43.42817 | 39.89044 | 1302 ft | 240 kts | 254° |
| 2026-05-06 18:11 | 43.42928 | 39.86008 | 2550 ft | 244 kts | 291° |
| 2026-05-06 18:11 | 43.43768 | 39.83976 | 3387 ft | 247 kts | 306° |
| 2026-05-06 18:12 | 43.44855 | 39.82106 | 3985 ft | 252 kts | 310° |
| 2026-05-06 18:12 | 43.46002 | 39.80271 | 4455 ft | 256 kts | 310° |
| 2026-05-06 18:12 | 43.47140 | 39.78394 | 4575 ft | 255 kts | 309° |
| 2026-05-06 18:12 | 43.48247 | 39.76478 | 4859 ft | 255 kts | 308° |
| 2026-05-06 18:13 | 43.49331 | 39.74538 | 5412 ft | 257 kts | 307° |
| 2026-05-06 18:13 | 43.50415 | 39.72568 | 6043 ft | 259 kts | 307° |
| 2026-05-06 18:13 | 43.51507 | 39.70574 | 6673 ft | 262 kts | 307° |
| 2026-05-06 18:13 | 43.52609 | 39.68561 | 7300 ft | 264 kts | 307° |
| 2026-05-06 18:14 | 43.53721 | 39.66534 | 7927 ft | 266 kts | 307° |
| 2026-05-06 18:14 | 43.54845 | 39.64487 | 8546 ft | 269 kts | 307° |
| 2026-05-06 18:14 | 43.55981 | 39.62423 | 9182 ft | 272 kts | 307° |
| 2026-05-06 18:14 | 43.57127 | 39.60342 | 9816 ft | 274 kts | 307° |
| 2026-05-06 18:15 | 43.58287 | 39.58235 | 10442 ft | 277 kts | 307° |
| 2026-05-06 18:15 | 43.59458 | 39.56110 | 11072 ft | 281 kts | 307° |
| 2026-05-06 18:15 | 43.60650 | 39.53948 | 11689 ft | 286 kts | 307° |
| 2026-05-06 18:15 | 43.61968 | 39.51877 | 12304 ft | 290 kts | 320° |
| 2026-05-06 18:16 | 43.63756 | 39.50536 | 12798 ft | 300 kts | 343° |
| 2026-05-06 18:16 | 43.65860 | 39.50257 | 13238 ft | 312 kts | 6° |
| 2026-05-06 18:16 | 43.67982 | 39.51050 | 13680 ft | 321 kts | 20° |
| 2026-05-06 18:16 | 43.70074 | 39.52199 | 14085 ft | 325 kts | 27° |
| 2026-05-06 18:17 | 43.71843 | 39.54145 | 14527 ft | 328 kts | 50° |
| 2026-05-06 18:17 | 43.72963 | 39.56885 | 14955 ft | 331 kts | 72° |
| 2026-05-06 18:17 | 43.73465 | 39.60000 | 15390 ft | 334 kts | 80° |
| 2026-05-06 18:17 | 43.73879 | 39.63169 | 15812 ft | 336 kts | 80° |
| 2026-05-06 18:18 | 43.74300 | 39.66321 | 16232 ft | 340 kts | 79° |
| 2026-05-06 18:18 | 43.74760 | 39.69568 | 16675 ft | 340 kts | 79° |
| 2026-05-06 18:18 | 43.75235 | 39.72793 | 17098 ft | 344 kts | 78° |
| 2026-05-06 18:18 | 43.75724 | 39.76039 | 17522 ft | 345 kts | 78° |
| 2026-05-06 18:19 | 43.76219 | 39.79314 | 17949 ft | 350 kts | 78° |
| 2026-05-06 18:19 | 43.76549 | 39.81494 | 18230 ft | 350 kts | 78° |
| 2026-05-06 18:19 | 43.77048 | 39.84806 | 18656 ft | 354 kts | 78° |
| 2026-05-06 18:19 | 43.77553 | 39.88168 | 19082 ft | 359 kts | 78° |
| 2026-05-06 18:20 | 43.78225 | 39.92677 | 19645 ft | 361 kts | 79° |
| 2026-05-06 18:20 | 43.78543 | 39.94981 | 19933 ft | 362 kts | 79° |
| 2026-05-06 18:20 | 43.78986 | 39.98429 | 20397 ft | 365 kts | 80° |
| 2026-05-06 18:20 | 43.79421 | 40.01888 | 21012 ft | 364 kts | 80° |
| 2026-05-06 18:21 | 43.79855 | 40.05323 | 21637 ft | 362 kts | 80° |
| 2026-05-06 18:21 | 43.80293 | 40.08752 | 22258 ft | 361 kts | 80° |
| 2026-05-06 18:21 | 43.80731 | 40.12165 | 22877 ft | 360 kts | 80° |
| 2026-05-06 18:21 | 43.81168 | 40.15568 | 23503 ft | 358 kts | 80° |
| 2026-05-06 18:22 | 43.81602 | 40.18951 | 24122 ft | 355 kts | 80° |
| 2026-05-06 18:22 | 43.82030 | 40.22293 | 24744 ft | 351 kts | 80° |
| 2026-05-06 18:22 | 43.82452 | 40.25603 | 25359 ft | 346 kts | 80° |
| 2026-05-06 18:22 | 43.82867 | 40.28862 | 25981 ft | 341 kts | 80° |
| 2026-05-06 18:23 | 43.83276 | 40.32081 | 26535 ft | 339 kts | 80° |
| 2026-05-06 18:23 | 43.83684 | 40.35300 | 26993 ft | 340 kts | 80° |
| 2026-05-06 18:23 | 43.84092 | 40.38536 | 27361 ft | 342 kts | 80° |
| 2026-05-06 18:23 | 43.84502 | 40.41794 | 27710 ft | 345 kts | 80° |
| 2026-05-06 18:24 | 43.84915 | 40.45077 | 28070 ft | 347 kts | 80° |
| 2026-05-06 18:24 | 43.85330 | 40.48391 | 28369 ft | 352 kts | 80° |
| 2026-05-06 18:24 | 43.85750 | 40.51748 | 28651 ft | 356 kts | 80° |
| 2026-05-06 18:24 | 43.86174 | 40.55153 | 28928 ft | 361 kts | 80° |
| 2026-05-06 18:25 | 43.86603 | 40.58597 | 29196 ft | 365 kts | 80° |
| 2026-05-06 18:25 | 43.87035 | 40.62084 | 29487 ft | 368 kts | 80° |
| 2026-05-06 18:25 | 43.87469 | 40.65596 | 29766 ft | 372 kts | 80° |
| 2026-05-06 18:25 | 43.87906 | 40.69141 | 30039 ft | 375 kts | 80° |
| 2026-05-06 18:26 | 43.88237 | 40.72750 | 30313 ft | 379 kts | 86° |
| 2026-05-06 18:26 | 43.88381 | 40.76417 | 30588 ft | 383 kts | 86° |
| 2026-05-06 18:26 | 43.88539 | 40.80128 | 30866 ft | 388 kts | 86° |
| 2026-05-06 18:26 | 43.88704 | 40.83878 | 31144 ft | 392 kts | 86° |
| 2026-05-06 18:27 | 43.88872 | 40.87669 | 31427 ft | 396 kts | 86° |
| 2026-05-06 18:27 | 43.89039 | 40.91453 | 31701 ft | 400 kts | 86° |
| 2026-05-06 18:27 | 43.89206 | 40.95322 | 31976 ft | 404 kts | 86° |
| 2026-05-06 18:27 | 43.89374 | 40.99231 | 32254 ft | 408 kts | 86° |
| 2026-05-06 18:28 | 43.89542 | 41.03180 | 32533 ft | 412 kts | 86° |
| 2026-05-06 18:28 | 43.89709 | 41.07161 | 32809 ft | 414 kts | 86° |
| 2026-05-06 18:28 | 43.89875 | 41.11132 | 33080 ft | 411 kts | 86° |
| 2026-05-06 18:28 | 43.90038 | 41.15075 | 33355 ft | 409 kts | 86° |
| 2026-05-06 18:29 | 43.90199 | 41.19014 | 33629 ft | 410 kts | 86° |
| 2026-05-06 18:29 | 43.90359 | 41.22950 | 33906 ft | 409 kts | 86° |
| 2026-05-06 18:29 | 43.90518 | 41.26883 | 34175 ft | 408 kts | 86° |
| 2026-05-06 18:29 | 43.90675 | 41.30807 | 34449 ft | 408 kts | 87° |
| 2026-05-06 18:30 | 43.90831 | 41.34732 | 34723 ft | 408 kts | 87° |
| 2026-05-06 18:30 | 43.90985 | 41.38664 | 34997 ft | 408 kts | 87° |
| 2026-05-06 18:30 | 43.91138 | 41.42584 | 35284 ft | 407 kts | 87° |
| 2026-05-06 18:30 | 43.91289 | 41.46493 | 35543 ft | 406 kts | 87° |
| 2026-05-06 18:31 | 43.91438 | 41.50390 | 35815 ft | 405 kts | 87° |
| 2026-05-06 18:31 | 43.91586 | 41.54289 | 36090 ft | 404 kts | 87° |
| 2026-05-06 18:31 | 43.91733 | 41.58183 | 36362 ft | 405 kts | 87° |
| 2026-05-06 18:31 | 43.91873 | 41.62087 | 36635 ft | 406 kts | 87° |
| 2026-05-06 18:32 | 43.92011 | 41.66002 | 36884 ft | 407 kts | 87° |
| 2026-05-06 18:32 | 43.92147 | 41.69914 | 36968 ft | 405 kts | 87° |
| 2026-05-06 18:32 | 43.92416 | 41.77716 | 37002 ft | 410 kts | 87° |
| 2026-05-06 18:33 | 43.92688 | 41.85776 | 37002 ft | 426 kts | 87° |
| 2026-05-06 18:33 | 43.92966 | 41.94146 | 37001 ft | 443 kts | 87° |
| 2026-05-06 18:34 | 43.93248 | 42.02828 | 37001 ft | 458 kts | 87° |
| 2026-05-06 18:34 | 43.93532 | 42.11805 | 37001 ft | 473 kts | 87° |
| 2026-05-06 18:35 | 43.93817 | 42.21039 | 37000 ft | 483 kts | 88° |
| 2026-05-06 18:35 | 43.94098 | 42.30391 | 37000 ft | 485 kts | 88° |
| 2026-05-06 18:36 | 43.94371 | 42.39751 | 37000 ft | 487 kts | 88° |
| 2026-05-06 18:36 | 43.94637 | 42.49116 | 37000 ft | 484 kts | 88° |
| 2026-05-06 18:37 | 43.94830 | 42.58448 | 37000 ft | 483 kts | 91° |
| 2026-05-06 18:37 | 43.93955 | 42.67685 | 37001 ft | 483 kts | 103° |
| 2026-05-06 18:38 | 43.92125 | 42.76654 | 37000 ft | 484 kts | 106° |
| 2026-05-06 18:38 | 43.90290 | 42.85672 | 37000 ft | 486 kts | 105° |
| 2026-05-06 18:39 | 43.88454 | 42.94671 | 37000 ft | 485 kts | 106° |
| 2026-05-06 18:40 | 43.85683 | 43.08144 | 37000 ft | 483 kts | 106° |
| 2026-05-06 18:40 | 43.83833 | 43.17088 | 37000 ft | 483 kts | 106° |
| 2026-05-06 18:41 | 43.81978 | 43.26013 | 37000 ft | 482 kts | 106° |
| 2026-05-06 18:41 | 43.80118 | 43.34924 | 37000 ft | 481 kts | 106° |
| 2026-05-06 18:42 | 43.78264 | 43.43768 | 37000 ft | 481 kts | 106° |
| 2026-05-06 18:42 | 43.77331 | 43.48204 | 37000 ft | 480 kts | 106° |